sensor_id;sensor_type;location;lat;lon;timestamp;temperature;humidity
20526;DHT22;10421;49.142;9.232;2023-07-24T00:01:48;22.20;98.30
20526;DHT22;10421;49.142;9.232;2023-07-24T00:04:15;22.20;98.40
20526;DHT22;10421;49.142;9.232;2023-07-24T00:06:42;22.20;98.60
20526;DHT22;10421;49.142;9.232;2023-07-24T00:09:08;22.20;98.70
20526;DHT22;10421;49.142;9.232;2023-07-24T00:11:35;22.20;98.60
20526;DHT22;10421;49.142;9.232;2023-07-24T00:14:02;22.20;98.60
20526;DHT22;10421;49.142;9.232;2023-07-24T00:16:28;22.30;98.60
20526;DHT22;10421;49.142;9.232;2023-07-24T00:18:56;22.30;98.60
20526;DHT22;10421;49.142;9.232;2023-07-24T00:21:23;22.40;98.80
20526;DHT22;10421;49.142;9.232;2023-07-24T00:23:50;22.40;99.40
20526;DHT22;10421;49.142;9.232;2023-07-24T00:26:16;22.40;99.50
20526;DHT22;10421;49.142;9.232;2023-07-24T00:28:43;22.50;99.70
20526;DHT22;10421;49.142;9.232;2023-07-24T00:31:10;22.60;99.80
20526;DHT22;10421;49.142;9.232;2023-07-24T00:33:36;22.60;99.90
20526;DHT22;10421;49.142;9.232;2023-07-24T00:36:05;22.60;99.90
20526;DHT22;10421;49.142;9.232;2023-07-24T00:38:31;22.60;99.90
20526;DHT22;10421;49.142;9.232;2023-07-24T00:40:58;22.60;99.90
20526;DHT22;10421;49.142;9.232;2023-07-24T00:43:25;22.60;99.90
20526;DHT22;10421;49.142;9.232;2023-07-24T00:45:52;22.60;99.90
20526;DHT22;10421;49.142;9.232;2023-07-24T00:48:20;22.60;99.90
20526;DHT22;10421;49.142;9.232;2023-07-24T00:50:47;22.60;99.90
20526;DHT22;10421;49.142;9.232;2023-07-24T00:53:17;22.60;99.90
20526;DHT22;10421;49.142;9.232;2023-07-24T00:55:44;22.60;99.90
20526;DHT22;10421;49.142;9.232;2023-07-24T00:58:12;22.60;99.90
20526;DHT22;10421;49.142;9.232;2023-07-24T01:00:40;22.60;99.90
20526;DHT22;10421;49.142;9.232;2023-07-24T01:03:07;22.60;99.90
20526;DHT22;10421;49.142;9.232;2023-07-24T01:05:34;22.70;99.90
20526;DHT22;10421;49.142;9.232;2023-07-24T01:08:01;22.70;99.90
20526;DHT22;10421;49.142;9.232;2023-07-24T01:10:29;22.70;99.90
20526;DHT22;10421;49.142;9.232;2023-07-24T01:12:59;22.60;99.90
20526;DHT22;10421;49.142;9.232;2023-07-24T01:15:30;22.60;99.90
20526;DHT22;10421;49.142;9.232;2023-07-24T01:18:00;22.50;99.90
20526;DHT22;10421;49.142;9.232;2023-07-24T01:20:29;22.50;99.90
20526;DHT22;10421;49.142;9.232;2023-07-24T01:23:13;22.50;99.90
20526;DHT22;10421;49.142;9.232;2023-07-24T01:25:54;22.50;99.90
20526;DHT22;10421;49.142;9.232;2023-07-24T01:28:22;22.40;99.90
20526;DHT22;10421;49.142;9.232;2023-07-24T01:30:48;22.40;99.90
20526;DHT22;10421;49.142;9.232;2023-07-24T01:33:15;22.50;99.90
20526;DHT22;10421;49.142;9.232;2023-07-24T01:35:42;22.50;99.90
20526;DHT22;10421;49.142;9.232;2023-07-24T01:38:10;22.50;99.90
20526;DHT22;10421;49.142;9.232;2023-07-24T01:40:37;22.50;99.90
20526;DHT22;10421;49.142;9.232;2023-07-24T01:43:05;22.50;99.90
20526;DHT22;10421;49.142;9.232;2023-07-24T01:45:32;22.50;99.90
20526;DHT22;10421;49.142;9.232;2023-07-24T01:47:59;22.40;99.90
20526;DHT22;10421;49.142;9.232;2023-07-24T01:50:26;22.40;99.90
20526;DHT22;10421;49.142;9.232;2023-07-24T01:52:53;22.40;99.90
20526;DHT22;10421;49.142;9.232;2023-07-24T01:55:19;22.30;99.90
20526;DHT22;10421;49.142;9.232;2023-07-24T01:57:46;22.30;99.90
20526;DHT22;10421;49.142;9.232;2023-07-24T02:00:14;22.30;99.90
20526;DHT22;10421;49.142;9.232;2023-07-24T02:02:41;22.30;99.90
20526;DHT22;10421;49.142;9.232;2023-07-24T02:05:08;22.30;99.90
20526;DHT22;10421;49.142;9.232;2023-07-24T02:07:35;22.30;99.90
20526;DHT22;10421;49.142;9.232;2023-07-24T02:10:02;22.30;99.90
20526;DHT22;10421;49.142;9.232;2023-07-24T02:12:29;22.30;99.90
20526;DHT22;10421;49.142;9.232;2023-07-24T02:14:55;22.30;99.90
20526;DHT22;10421;49.142;9.232;2023-07-24T02:17:24;22.30;99.90
20526;DHT22;10421;49.142;9.232;2023-07-24T02:19:50;22.20;99.90
20526;DHT22;10421;49.142;9.232;2023-07-24T02:22:17;22.20;99.90
20526;DHT22;10421;49.142;9.232;2023-07-24T02:24:44;22.30;99.90
20526;DHT22;10421;49.142;9.232;2023-07-24T02:27:12;22.30;99.90
20526;DHT22;10421;49.142;9.232;2023-07-24T02:29:39;22.30;99.90
20526;DHT22;10421;49.142;9.232;2023-07-24T02:32:07;22.30;99.90
20526;DHT22;10421;49.142;9.232;2023-07-24T02:34:35;22.30;99.90
20526;DHT22;10421;49.142;9.232;2023-07-24T02:37:02;22.30;99.90
20526;DHT22;10421;49.142;9.232;2023-07-24T02:39:29;22.20;99.90
20526;DHT22;10421;49.142;9.232;2023-07-24T02:41:55;22.20;99.90
20526;DHT22;10421;49.142;9.232;2023-07-24T02:44:22;22.20;99.90
20526;DHT22;10421;49.142;9.232;2023-07-24T02:46:49;22.20;99.90
20526;DHT22;10421;49.142;9.232;2023-07-24T02:49:15;22.20;99.90
20526;DHT22;10421;49.142;9.232;2023-07-24T02:51:43;22.20;99.90
20526;DHT22;10421;49.142;9.232;2023-07-24T02:54:10;22.10;99.90
20526;DHT22;10421;49.142;9.232;2023-07-24T02:56:37;22.10;99.90
20526;DHT22;10421;49.142;9.232;2023-07-24T02:59:04;22.10;99.90
20526;DHT22;10421;49.142;9.232;2023-07-24T03:01:31;22.10;99.90
20526;DHT22;10421;49.142;9.232;2023-07-24T03:03:57;22.10;99.90
20526;DHT22;10421;49.142;9.232;2023-07-24T03:06:25;22.10;99.90
20526;DHT22;10421;49.142;9.232;2023-07-24T03:08:53;22.10;99.90
20526;DHT22;10421;49.142;9.232;2023-07-24T03:11:20;22.10;99.90
20526;DHT22;10421;49.142;9.232;2023-07-24T03:13:47;22.10;99.90
20526;DHT22;10421;49.142;9.232;2023-07-24T03:16:13;22.10;99.90
20526;DHT22;10421;49.142;9.232;2023-07-24T03:18:42;22.10;99.90
20526;DHT22;10421;49.142;9.232;2023-07-24T03:21:09;22.10;99.90
20526;DHT22;10421;49.142;9.232;2023-07-24T03:23:36;22.10;99.90
20526;DHT22;10421;49.142;9.232;2023-07-24T03:26:04;22.10;99.90
20526;DHT22;10421;49.142;9.232;2023-07-24T03:28:30;22.10;99.90
20526;DHT22;10421;49.142;9.232;2023-07-24T03:30:57;22.00;99.90
20526;DHT22;10421;49.142;9.232;2023-07-24T03:33:24;22.10;99.90
20526;DHT22;10421;49.142;9.232;2023-07-24T03:35:50;22.00;99.90
20526;DHT22;10421;49.142;9.232;2023-07-24T03:38:17;22.00;99.90
20526;DHT22;10421;49.142;9.232;2023-07-24T03:40:44;22.00;99.90
20526;DHT22;10421;49.142;9.232;2023-07-24T03:43:12;22.00;99.90
20526;DHT22;10421;49.142;9.232;2023-07-24T03:45:39;21.90;99.90
20526;DHT22;10421;49.142;9.232;2023-07-24T03:48:05;22.00;99.90
20526;DHT22;10421;49.142;9.232;2023-07-24T03:50:32;22.00;99.90
20526;DHT22;10421;49.142;9.232;2023-07-24T03:52:59;22.00;99.90
20526;DHT22;10421;49.142;9.232;2023-07-24T03:55:25;22.10;99.90
20526;DHT22;10421;49.142;9.232;2023-07-24T03:57:52;22.10;99.90
20526;DHT22;10421;49.142;9.232;2023-07-24T04:00:20;22.10;99.90
20526;DHT22;10421;49.142;9.232;2023-07-24T04:02:47;22.10;99.90
20526;DHT22;10421;49.142;9.232;2023-07-24T04:05:14;22.10;99.90
20526;DHT22;10421;49.142;9.232;2023-07-24T04:07:40;22.10;99.90
20526;DHT22;10421;49.142;9.232;2023-07-24T04:10:08;22.10;99.90
20526;DHT22;10421;49.142;9.232;2023-07-24T04:12:35;22.10;99.90
20526;DHT22;10421;49.142;9.232;2023-07-24T04:15:01;22.20;99.90
20526;DHT22;10421;49.142;9.232;2023-07-24T04:17:29;22.20;99.90
20526;DHT22;10421;49.142;9.232;2023-07-24T04:19:57;22.20;99.90
20526;DHT22;10421;49.142;9.232;2023-07-24T04:22:25;22.20;99.90
20526;DHT22;10421;49.142;9.232;2023-07-24T04:24:52;22.20;99.90
20526;DHT22;10421;49.142;9.232;2023-07-24T04:27:18;22.20;99.90
20526;DHT22;10421;49.142;9.232;2023-07-24T04:29:45;22.20;99.90
20526;DHT22;10421;49.142;9.232;2023-07-24T04:32:12;22.20;99.90
20526;DHT22;10421;49.142;9.232;2023-07-24T04:34:40;22.10;99.90
20526;DHT22;10421;49.142;9.232;2023-07-24T04:37:07;22.00;99.90
20526;DHT22;10421;49.142;9.232;2023-07-24T04:39:33;22.00;99.90
20526;DHT22;10421;49.142;9.232;2023-07-24T04:42:00;22.00;99.90
20526;DHT22;10421;49.142;9.232;2023-07-24T04:44:27;22.00;99.90
20526;DHT22;10421;49.142;9.232;2023-07-24T04:46:53;22.00;99.90
20526;DHT22;10421;49.142;9.232;2023-07-24T04:49:21;22.00;99.90
20526;DHT22;10421;49.142;9.232;2023-07-24T04:51:49;22.00;99.90
20526;DHT22;10421;49.142;9.232;2023-07-24T04:54:16;22.10;99.90
20526;DHT22;10421;49.142;9.232;2023-07-24T04:56:43;22.10;99.90
20526;DHT22;10421;49.142;9.232;2023-07-24T04:59:09;22.10;99.90
20526;DHT22;10421;49.142;9.232;2023-07-24T05:01:36;22.20;99.90
20526;DHT22;10421;49.142;9.232;2023-07-24T05:04:03;22.20;99.90
20526;DHT22;10421;49.142;9.232;2023-07-24T05:06:30;22.20;99.90
20526;DHT22;10421;49.142;9.232;2023-07-24T05:08:58;22.30;99.90
20526;DHT22;10421;49.142;9.232;2023-07-24T05:11:24;22.30;99.90
20526;DHT22;10421;49.142;9.232;2023-07-24T05:13:51;22.30;99.90
20526;DHT22;10421;49.142;9.232;2023-07-24T05:16:18;22.40;99.90
20526;DHT22;10421;49.142;9.232;2023-07-24T05:18:45;22.40;99.90
20526;DHT22;10421;49.142;9.232;2023-07-24T05:21:11;22.40;99.90
20526;DHT22;10421;49.142;9.232;2023-07-24T05:23:38;22.50;99.90
20526;DHT22;10421;49.142;9.232;2023-07-24T05:26:06;22.50;99.90
20526;DHT22;10421;49.142;9.232;2023-07-24T05:28:33;22.50;99.90
20526;DHT22;10421;49.142;9.232;2023-07-24T05:31:00;22.60;99.90
20526;DHT22;10421;49.142;9.232;2023-07-24T05:33:28;22.60;99.90
20526;DHT22;10421;49.142;9.232;2023-07-24T05:35:58;22.60;99.90
20526;DHT22;10421;49.142;9.232;2023-07-24T05:38:25;22.60;99.90
20526;DHT22;10421;49.142;9.232;2023-07-24T05:40:54;22.60;99.90
20526;DHT22;10421;49.142;9.232;2023-07-24T05:43:23;22.70;99.90
20526;DHT22;10421;49.142;9.232;2023-07-24T05:45:50;22.70;99.90
20526;DHT22;10421;49.142;9.232;2023-07-24T05:48:17;22.70;99.90
20526;DHT22;10421;49.142;9.232;2023-07-24T05:50:43;22.70;99.90
20526;DHT22;10421;49.142;9.232;2023-07-24T05:53:10;22.60;99.90
20526;DHT22;10421;49.142;9.232;2023-07-24T05:55:37;22.60;99.90
20526;DHT22;10421;49.142;9.232;2023-07-24T05:58:04;22.60;99.90
20526;DHT22;10421;49.142;9.232;2023-07-24T06:00:32;22.60;99.90
20526;DHT22;10421;49.142;9.232;2023-07-24T06:02:59;22.60;99.90
20526;DHT22;10421;49.142;9.232;2023-07-24T06:05:26;22.70;99.90
20526;DHT22;10421;49.142;9.232;2023-07-24T06:07:52;22.70;99.90
20526;DHT22;10421;49.142;9.232;2023-07-24T06:10:19;22.70;99.90
20526;DHT22;10421;49.142;9.232;2023-07-24T06:12:46;22.70;99.90
20526;DHT22;10421;49.142;9.232;2023-07-24T06:15:13;22.80;99.90
20526;DHT22;10421;49.142;9.232;2023-07-24T06:17:41;22.80;99.90
20526;DHT22;10421;49.142;9.232;2023-07-24T06:20:09;22.80;99.90
20526;DHT22;10421;49.142;9.232;2023-07-24T06:22:35;22.80;99.90
20526;DHT22;10421;49.142;9.232;2023-07-24T06:25:02;22.90;99.90
20526;DHT22;10421;49.142;9.232;2023-07-24T06:27:29;23.00;99.90
20526;DHT22;10421;49.142;9.232;2023-07-24T06:29:56;22.90;99.90
20526;DHT22;10421;49.142;9.232;2023-07-24T06:32:23;22.90;99.90
20526;DHT22;10421;49.142;9.232;2023-07-24T06:34:51;23.00;99.90
20526;DHT22;10421;49.142;9.232;2023-07-24T06:37:18;23.00;99.90
20526;DHT22;10421;49.142;9.232;2023-07-24T06:39:44;23.10;99.90
20526;DHT22;10421;49.142;9.232;2023-07-24T06:42:11;23.20;99.90
20526;DHT22;10421;49.142;9.232;2023-07-24T06:44:38;23.20;99.90
20526;DHT22;10421;49.142;9.232;2023-07-24T06:47:05;23.20;99.90
20526;DHT22;10421;49.142;9.232;2023-07-24T06:49:31;23.40;99.90
20526;DHT22;10421;49.142;9.232;2023-07-24T06:51:59;23.40;99.90
20526;DHT22;10421;49.142;9.232;2023-07-24T06:54:26;23.50;99.90
20526;DHT22;10421;49.142;9.232;2023-07-24T06:56:53;23.60;99.90
20526;DHT22;10421;49.142;9.232;2023-07-24T06:59:19;23.60;99.90
20526;DHT22;10421;49.142;9.232;2023-07-24T07:01:46;23.70;99.90
20526;DHT22;10421;49.142;9.232;2023-07-24T07:04:13;23.70;99.90
20526;DHT22;10421;49.142;9.232;2023-07-24T07:06:39;23.80;99.90
20526;DHT22;10421;49.142;9.232;2023-07-24T07:09:07;23.90;99.90
20526;DHT22;10421;49.142;9.232;2023-07-24T07:11:35;24.00;99.90
20526;DHT22;10421;49.142;9.232;2023-07-24T07:14:01;24.00;99.90
20526;DHT22;10421;49.142;9.232;2023-07-24T07:16:28;24.10;99.90
20526;DHT22;10421;49.142;9.232;2023-07-24T07:18:55;24.10;99.90
20526;DHT22;10421;49.142;9.232;2023-07-24T07:21:22;24.20;99.90
20526;DHT22;10421;49.142;9.232;2023-07-24T07:23:48;24.20;99.90
20526;DHT22;10421;49.142;9.232;2023-07-24T07:26:16;24.30;99.90
20526;DHT22;10421;49.142;9.232;2023-07-24T07:28:43;24.30;99.10
20526;DHT22;10421;49.142;9.232;2023-07-24T07:31:10;24.20;97.80
20526;DHT22;10421;49.142;9.232;2023-07-24T07:33:37;24.10;97.70
20526;DHT22;10421;49.142;9.232;2023-07-24T07:36:04;24.00;97.70
20526;DHT22;10421;49.142;9.232;2023-07-24T07:38:31;24.00;97.90
20526;DHT22;10421;49.142;9.232;2023-07-24T07:40:58;23.80;98.20
20526;DHT22;10421;49.142;9.232;2023-07-24T07:43:26;23.80;98.40
20526;DHT22;10421;49.142;9.232;2023-07-24T07:45:52;23.80;98.40
20526;DHT22;10421;49.142;9.232;2023-07-24T07:48:19;23.80;98.30
20526;DHT22;10421;49.142;9.232;2023-07-24T07:50:50;23.80;98.40
20526;DHT22;10421;49.142;9.232;2023-07-24T07:53:17;23.80;98.30
20526;DHT22;10421;49.142;9.232;2023-07-24T07:55:43;23.80;97.80
20526;DHT22;10421;49.142;9.232;2023-07-24T07:58:10;23.80;98.00
20526;DHT22;10421;49.142;9.232;2023-07-24T08:00:38;23.70;97.80
20526;DHT22;10421;49.142;9.232;2023-07-24T08:03:06;23.60;98.20
20526;DHT22;10421;49.142;9.232;2023-07-24T08:05:33;23.50;98.50
20526;DHT22;10421;49.142;9.232;2023-07-24T08:07:59;23.50;98.20
20526;DHT22;10421;49.142;9.232;2023-07-24T08:10:26;23.40;98.20
20526;DHT22;10421;49.142;9.232;2023-07-24T08:12:53;23.40;98.30
20526;DHT22;10421;49.142;9.232;2023-07-24T08:15:19;23.40;98.00
20526;DHT22;10421;49.142;9.232;2023-07-24T08:17:47;23.30;98.30
20526;DHT22;10421;49.142;9.232;2023-07-24T08:20:14;23.30;98.50
20526;DHT22;10421;49.142;9.232;2023-07-24T08:22:41;23.20;99.10
20526;DHT22;10421;49.142;9.232;2023-07-24T08:25:08;23.10;99.40
20526;DHT22;10421;49.142;9.232;2023-07-24T08:27:35;23.20;99.70
20526;DHT22;10421;49.142;9.232;2023-07-24T08:30:02;23.20;99.90
20526;DHT22;10421;49.142;9.232;2023-07-24T08:32:29;23.30;99.90
20526;DHT22;10421;49.142;9.232;2023-07-24T08:34:57;23.20;99.90
20526;DHT22;10421;49.142;9.232;2023-07-24T08:37:23;23.20;99.90
20526;DHT22;10421;49.142;9.232;2023-07-24T08:39:50;23.30;99.90
20526;DHT22;10421;49.142;9.232;2023-07-24T08:42:17;23.30;99.90
20526;DHT22;10421;49.142;9.232;2023-07-24T08:44:45;23.40;99.90
20526;DHT22;10421;49.142;9.232;2023-07-24T08:47:13;23.40;99.90
20526;DHT22;10421;49.142;9.232;2023-07-24T08:49:42;23.40;99.90
20526;DHT22;10421;49.142;9.232;2023-07-24T08:52:11;23.40;99.90
20526;DHT22;10421;49.142;9.232;2023-07-24T08:54:38;23.50;99.90
20526;DHT22;10421;49.142;9.232;2023-07-24T08:57:06;23.50;99.90
20526;DHT22;10421;49.142;9.232;2023-07-24T08:59:34;23.60;99.90
20526;DHT22;10421;49.142;9.232;2023-07-24T09:02:01;23.70;99.90
20526;DHT22;10421;49.142;9.232;2023-07-24T09:04:28;23.70;99.90
20526;DHT22;10421;49.142;9.232;2023-07-24T09:06:56;23.80;99.90
20526;DHT22;10421;49.142;9.232;2023-07-24T09:09:29;23.80;99.90
20526;DHT22;10421;49.142;9.232;2023-07-24T09:11:56;23.80;99.90
20526;DHT22;10421;49.142;9.232;2023-07-24T09:14:25;23.80;99.90
20526;DHT22;10421;49.142;9.232;2023-07-24T09:17:02;23.90;99.90
20526;DHT22;10421;49.142;9.232;2023-07-24T09:19:29;23.90;99.90
20526;DHT22;10421;49.142;9.232;2023-07-24T09:22:06;24.00;99.90
20526;DHT22;10421;49.142;9.232;2023-07-24T09:24:35;24.10;99.90
20526;DHT22;10421;49.142;9.232;2023-07-24T09:27:05;24.10;99.90
20526;DHT22;10421;49.142;9.232;2023-07-24T09:29:33;24.10;99.90
20526;DHT22;10421;49.142;9.232;2023-07-24T09:32:00;24.10;99.90
20526;DHT22;10421;49.142;9.232;2023-07-24T09:34:27;24.10;99.90
20526;DHT22;10421;49.142;9.232;2023-07-24T09:36:53;24.00;99.90
20526;DHT22;10421;49.142;9.232;2023-07-24T09:39:23;23.90;99.90
20526;DHT22;10421;49.142;9.232;2023-07-24T09:41:51;23.80;99.90
20526;DHT22;10421;49.142;9.232;2023-07-24T09:44:18;23.80;99.90
20526;DHT22;10421;49.142;9.232;2023-07-24T09:46:46;23.70;99.90
20526;DHT22;10421;49.142;9.232;2023-07-24T09:49:13;23.70;99.90
20526;DHT22;10421;49.142;9.232;2023-07-24T09:51:44;23.80;99.90
20526;DHT22;10421;49.142;9.232;2023-07-24T09:54:18;23.90;99.90
20526;DHT22;10421;49.142;9.232;2023-07-24T09:56:46;24.00;99.90
20526;DHT22;10421;49.142;9.232;2023-07-24T09:59:15;24.00;99.90
20526;DHT22;10421;49.142;9.232;2023-07-24T10:01:42;24.00;99.90
20526;DHT22;10421;49.142;9.232;2023-07-24T10:04:10;24.00;99.90
20526;DHT22;10421;49.142;9.232;2023-07-24T10:06:37;24.10;99.90
20526;DHT22;10421;49.142;9.232;2023-07-24T10:09:04;24.10;99.90
20526;DHT22;10421;49.142;9.232;2023-07-24T10:11:32;24.10;99.90
20526;DHT22;10421;49.142;9.232;2023-07-24T10:13:59;24.10;99.90
20526;DHT22;10421;49.142;9.232;2023-07-24T10:16:27;24.10;99.90
20526;DHT22;10421;49.142;9.232;2023-07-24T10:18:54;24.00;99.90
20526;DHT22;10421;49.142;9.232;2023-07-24T10:21:26;24.00;99.90
20526;DHT22;10421;49.142;9.232;2023-07-24T10:23:53;24.00;99.90
20526;DHT22;10421;49.142;9.232;2023-07-24T10:26:24;24.00;99.90
20526;DHT22;10421;49.142;9.232;2023-07-24T10:28:52;24.00;99.90
20526;DHT22;10421;49.142;9.232;2023-07-24T10:31:20;23.90;99.90
20526;DHT22;10421;49.142;9.232;2023-07-24T10:33:49;23.80;99.90
20526;DHT22;10421;49.142;9.232;2023-07-24T10:36:17;23.80;99.90
20526;DHT22;10421;49.142;9.232;2023-07-24T10:38:45;23.70;99.90
20526;DHT22;10421;49.142;9.232;2023-07-24T10:41:12;23.70;99.90
20526;DHT22;10421;49.142;9.232;2023-07-24T10:43:43;23.70;99.90
20526;DHT22;10421;49.142;9.232;2023-07-24T10:46:11;23.60;99.90
20526;DHT22;10421;49.142;9.232;2023-07-24T10:48:38;23.70;99.90
20526;DHT22;10421;49.142;9.232;2023-07-24T10:51:10;23.70;99.90
20526;DHT22;10421;49.142;9.232;2023-07-24T10:53:43;23.60;99.90
20526;DHT22;10421;49.142;9.232;2023-07-24T10:56:10;23.60;99.90
20526;DHT22;10421;49.142;9.232;2023-07-24T10:58:37;23.60;99.90
20526;DHT22;10421;49.142;9.232;2023-07-24T11:01:04;23.50;99.90
20526;DHT22;10421;49.142;9.232;2023-07-24T11:03:31;23.50;99.90
20526;DHT22;10421;49.142;9.232;2023-07-24T11:05:59;23.40;99.90
20526;DHT22;10421;49.142;9.232;2023-07-24T11:08:27;23.30;99.90
20526;DHT22;10421;49.142;9.232;2023-07-24T11:10:58;23.30;99.90
20526;DHT22;10421;49.142;9.232;2023-07-24T11:13:28;23.20;99.90
20526;DHT22;10421;49.142;9.232;2023-07-24T11:15:55;23.20;99.90
20526;DHT22;10421;49.142;9.232;2023-07-24T11:18:22;23.10;99.90
20526;DHT22;10421;49.142;9.232;2023-07-24T11:20:53;23.00;99.90
20526;DHT22;10421;49.142;9.232;2023-07-24T11:23:20;22.90;99.90
20526;DHT22;10421;49.142;9.232;2023-07-24T11:25:50;22.80;99.90
20526;DHT22;10421;49.142;9.232;2023-07-24T11:28:18;22.80;99.90
20526;DHT22;10421;49.142;9.232;2023-07-24T11:30:45;22.80;99.90
20526;DHT22;10421;49.142;9.232;2023-07-24T11:33:14;22.70;99.90
20526;DHT22;10421;49.142;9.232;2023-07-24T11:35:42;22.70;99.90
20526;DHT22;10421;49.142;9.232;2023-07-24T11:38:09;22.60;99.90
20526;DHT22;10421;49.142;9.232;2023-07-24T11:40:40;22.60;99.90
20526;DHT22;10421;49.142;9.232;2023-07-24T11:43:17;22.60;99.90
20526;DHT22;10421;49.142;9.232;2023-07-24T11:45:44;22.60;99.90
20526;DHT22;10421;49.142;9.232;2023-07-24T11:48:12;22.60;99.90
20526;DHT22;10421;49.142;9.232;2023-07-24T11:50:43;22.70;99.90
20526;DHT22;10421;49.142;9.232;2023-07-24T11:53:19;22.60;99.90
20526;DHT22;10421;49.142;9.232;2023-07-24T11:55:48;22.70;99.90
20526;DHT22;10421;49.142;9.232;2023-07-24T11:58:16;22.70;99.90
20526;DHT22;10421;49.142;9.232;2023-07-24T12:00:43;22.70;99.90
20526;DHT22;10421;49.142;9.232;2023-07-24T12:03:10;22.80;99.90
20526;DHT22;10421;49.142;9.232;2023-07-24T12:05:40;22.80;99.90
20526;DHT22;10421;49.142;9.232;2023-07-24T12:08:07;22.90;99.90
20526;DHT22;10421;49.142;9.232;2023-07-24T12:10:36;23.00;99.90
20526;DHT22;10421;49.142;9.232;2023-07-24T12:13:04;23.10;99.90
20526;DHT22;10421;49.142;9.232;2023-07-24T12:15:33;23.10;99.90
20526;DHT22;10421;49.142;9.232;2023-07-24T12:18:00;23.20;99.90
20526;DHT22;10421;49.142;9.232;2023-07-24T12:20:28;23.20;99.90
20526;DHT22;10421;49.142;9.232;2023-07-24T12:22:55;23.20;99.90
20526;DHT22;10421;49.142;9.232;2023-07-24T12:25:22;23.10;99.90
20526;DHT22;10421;49.142;9.232;2023-07-24T12:27:48;23.10;99.90
20526;DHT22;10421;49.142;9.232;2023-07-24T12:30:15;23.00;99.90
20526;DHT22;10421;49.142;9.232;2023-07-24T12:32:44;23.00;99.90
20526;DHT22;10421;49.142;9.232;2023-07-24T12:35:11;23.00;99.90
20526;DHT22;10421;49.142;9.232;2023-07-24T12:37:37;23.10;99.90
20526;DHT22;10421;49.142;9.232;2023-07-24T12:40:06;23.10;99.90
20526;DHT22;10421;49.142;9.232;2023-07-24T12:42:33;23.00;99.90
20526;DHT22;10421;49.142;9.232;2023-07-24T12:45:00;23.00;99.90
20526;DHT22;10421;49.142;9.232;2023-07-24T12:47:28;23.00;99.90
20526;DHT22;10421;49.142;9.232;2023-07-24T12:49:56;22.90;99.90
20526;DHT22;10421;49.142;9.232;2023-07-24T12:52:24;22.90;99.90
20526;DHT22;10421;49.142;9.232;2023-07-24T12:54:51;22.80;99.90
20526;DHT22;10421;49.142;9.232;2023-07-24T12:57:18;22.80;99.90
20526;DHT22;10421;49.142;9.232;2023-07-24T12:59:45;22.70;99.90
20526;DHT22;10421;49.142;9.232;2023-07-24T13:02:12;22.60;99.90
20526;DHT22;10421;49.142;9.232;2023-07-24T13:04:38;22.60;99.90
20526;DHT22;10421;49.142;9.232;2023-07-24T13:07:06;22.60;99.90
20526;DHT22;10421;49.142;9.232;2023-07-24T13:09:33;22.70;99.90
20526;DHT22;10421;49.142;9.232;2023-07-24T13:12:00;22.80;99.90
20526;DHT22;10421;49.142;9.232;2023-07-24T13:14:27;22.90;99.90
20526;DHT22;10421;49.142;9.232;2023-07-24T13:16:54;23.00;99.90
20526;DHT22;10421;49.142;9.232;2023-07-24T13:19:21;23.20;99.90
20526;DHT22;10421;49.142;9.232;2023-07-24T13:21:48;23.30;99.90
20526;DHT22;10421;49.142;9.232;2023-07-24T13:24:16;23.20;99.90
20526;DHT22;10421;49.142;9.232;2023-07-24T13:26:43;23.20;99.90
20526;DHT22;10421;49.142;9.232;2023-07-24T13:29:13;23.20;99.90
20526;DHT22;10421;49.142;9.232;2023-07-24T13:31:40;23.30;99.90
20526;DHT22;10421;49.142;9.232;2023-07-24T13:34:07;23.30;99.90
20526;DHT22;10421;49.142;9.232;2023-07-24T13:36:34;23.30;99.90
20526;DHT22;10421;49.142;9.232;2023-07-24T13:39:00;23.30;99.90
20526;DHT22;10421;49.142;9.232;2023-07-24T13:41:29;23.20;99.90
20526;DHT22;10421;49.142;9.232;2023-07-24T13:43:55;23.20;99.90
20526;DHT22;10421;49.142;9.232;2023-07-24T13:46:22;23.20;99.90
20526;DHT22;10421;49.142;9.232;2023-07-24T13:48:49;23.30;99.90
20526;DHT22;10421;49.142;9.232;2023-07-24T13:51:16;23.30;99.90
20526;DHT22;10421;49.142;9.232;2023-07-24T13:53:42;23.30;99.90
20526;DHT22;10421;49.142;9.232;2023-07-24T13:56:11;23.30;99.90
20526;DHT22;10421;49.142;9.232;2023-07-24T13:58:40;23.30;99.90
20526;DHT22;10421;49.142;9.232;2023-07-24T14:01:07;23.40;99.90
20526;DHT22;10421;49.142;9.232;2023-07-24T14:03:34;23.40;99.90
20526;DHT22;10421;49.142;9.232;2023-07-24T14:06:01;23.50;99.90
20526;DHT22;10421;49.142;9.232;2023-07-24T14:08:27;23.60;99.90
20526;DHT22;10421;49.142;9.232;2023-07-24T14:10:54;23.50;99.90
20526;DHT22;10421;49.142;9.232;2023-07-24T14:13:21;23.50;99.90
20526;DHT22;10421;49.142;9.232;2023-07-24T14:15:49;23.50;99.90
20526;DHT22;10421;49.142;9.232;2023-07-24T14:18:16;23.40;99.90
20526;DHT22;10421;49.142;9.232;2023-07-24T14:20:42;23.50;99.90
20526;DHT22;10421;49.142;9.232;2023-07-24T14:23:09;23.50;99.90
20526;DHT22;10421;49.142;9.232;2023-07-24T14:25:36;23.50;99.90
20526;DHT22;10421;49.142;9.232;2023-07-24T14:28:03;23.60;99.90
20526;DHT22;10421;49.142;9.232;2023-07-24T14:30:29;23.70;99.90
20526;DHT22;10421;49.142;9.232;2023-07-24T14:32:58;23.70;99.80
20526;DHT22;10421;49.142;9.232;2023-07-24T14:35:24;23.70;99.90
20526;DHT22;10421;49.142;9.232;2023-07-24T14:37:51;23.70;99.80
20526;DHT22;10421;49.142;9.232;2023-07-24T14:40:18;23.70;99.90
20526;DHT22;10421;49.142;9.232;2023-07-24T14:42:45;23.80;99.90
20526;DHT22;10421;49.142;9.232;2023-07-24T14:45:12;23.90;99.90
20526;DHT22;10421;49.142;9.232;2023-07-24T14:47:41;24.00;99.90
20526;DHT22;10421;49.142;9.232;2023-07-24T14:50:09;24.00;99.90
20526;DHT22;10421;49.142;9.232;2023-07-24T14:52:36;24.00;99.90
20526;DHT22;10421;49.142;9.232;2023-07-24T14:55:04;24.10;99.90
20526;DHT22;10421;49.142;9.232;2023-07-24T14:57:31;24.20;99.90
20526;DHT22;10421;49.142;9.232;2023-07-24T14:59:58;24.30;99.90
20526;DHT22;10421;49.142;9.232;2023-07-24T15:02:24;24.30;99.90
20526;DHT22;10421;49.142;9.232;2023-07-24T15:04:51;24.30;99.90
20526;DHT22;10421;49.142;9.232;2023-07-24T15:07:19;24.30;99.90
20526;DHT22;10421;49.142;9.232;2023-07-24T15:09:46;24.40;99.90
20526;DHT22;10421;49.142;9.232;2023-07-24T15:12:13;24.50;99.90
20526;DHT22;10421;49.142;9.232;2023-07-24T15:14:40;24.60;99.90
20526;DHT22;10421;49.142;9.232;2023-07-24T15:17:07;24.70;99.90
20526;DHT22;10421;49.142;9.232;2023-07-24T15:19:33;24.80;99.90
20526;DHT22;10421;49.142;9.232;2023-07-24T15:22:00;24.90;99.90
20526;DHT22;10421;49.142;9.232;2023-07-24T15:24:28;25.00;99.90
20526;DHT22;10421;49.142;9.232;2023-07-24T15:26:55;25.00;99.90
20526;DHT22;10421;49.142;9.232;2023-07-24T15:29:22;24.90;99.90
20526;DHT22;10421;49.142;9.232;2023-07-24T15:31:48;24.90;99.90